Time;durP1;ratioP1;P1;durP2;ratioP2;P2;SDS_P1;SDS_P2;PMS_P1;PMS_P2;Temp;Humidity;BMP_temperature;BMP_pressure;BME280_temperature;BME280_humidity;BME280_pressure;Samples;Min_cycle;Max_cycle;Signal;HPM_P1;HPM_P2
2022/02/05 00:02:36;;;;;;;19.35;9.10;;;;;;;1.95;86.13;100143.63;8895327;32;20185;-75
2022/02/05 00:07:45;;;;;;;17.77;8.20;;;;;;;1.66;85.60;100129.16;8870099;32;20533;-76
2022/02/05 00:13:05;;;;;;;20.67;9.10;;;;;;;1.80;86.03;100128.47;8895462;32;20222;-76
2022/02/05 00:45:10;;;;;;;17.42;8.00;;;;;;;1.99;83.55;100157.56;8894412;32;20626;-75
2022/02/05 00:50:20;;;;;;;8.50;5.35;;;;;;;1.84;83.30;100156.53;8894048;32;20653;-75
2022/02/05 00:55:26;;;;;;;20.00;6.15;;;;;;;1.93;83.46;100173.78;8893947;32;20177;-75
2022/02/05 01:00:31;;;;;;;15.40;7.65;;;;;;;2.34;82.70;100179.69;8893259;32;20648;-76
2022/02/05 01:05:37;;;;;;;17.42;8.35;;;;;;;2.05;83.15;100182.91;8894292;32;20915;-76
2022/02/05 01:10:40;;;;;;;15.77;7.70;;;;;;;2.21;82.88;100190.97;8893464;32;20150;-75
2022/02/05 01:15:51;;;;;;;14.10;6.15;;;;;;;2.15;82.82;100200.09;8893715;32;20134;-76
2022/02/05 01:21:11;;;;;;;21.23;6.03;;;;;;;2.13;82.60;100212.53;8893090;32;20173;-76
2022/02/05 01:26:21;;;;;;;7.40;5.35;;;;;;;1.97;82.50;100206.25;8893856;32;20669;-76
2022/02/05 01:31:28;;;;;;;14.25;6.45;;;;;;;2.10;82.53;100236.53;8893439;32;20134;-77
2022/02/05 01:53:00;;;;;;;16.10;8.15;;;;;;;2.14;81.78;100264.63;8891583;32;21250;-76
2022/02/05 01:58:34;;;;;;;20.50;8.15;;;;;;;1.99;82.55;100270.66;8893956;32;20262;-76
2022/02/05 02:14:36;;;;;;;14.88;7.75;;;;;;;2.19;81.53;100275.84;8899078;32;20937;-76
2022/02/05 02:19:51;;;;;;;8.73;5.55;;;;;;;1.95;81.70;100292.00;8898082;32;20130;-76
2022/02/05 02:25:04;;;;;;;10.07;6.18;;;;;;;2.27;80.54;100281.63;8897440;32;20401;-75
2022/02/05 02:30:15;;;;;;;14.73;6.60;;;;;;;2.13;80.94;100306.16;8898241;32;20219;-76
2022/02/05 02:35:22;;;;;;;9.65;6.57;;;;;;;2.28;79.90;100293.97;8896008;32;20574;-76
2022/02/05 02:40:33;;;;;;;15.20;6.70;;;;;;;2.42;79.79;100295.97;8897451;32;20189;-75
2022/02/05 02:45:37;;;;;;;6.97;4.22;;;;;;;2.09;80.11;100301.09;8896957;32;20177;-76
2022/02/05 03:01:20;;;;;;;8.75;4.90;;;;;;;2.08;79.72;100313.44;8896962;32;20181;-76
2022/02/05 03:06:23;;;;;;;6.60;4.40;;;;;;;2.17;79.02;100312.19;8897005;32;20173;-76
2022/02/05 03:11:27;;;;;;;9.20;5.70;;;;;;;2.14;78.88;100317.63;8896391;32;20217;-76
2022/02/05 03:16:35;;;;;;;10.55;5.45;;;;;;;1.68;80.10;100327.69;8896733;32;20169;-75
2022/02/05 03:21:38;;;;;;;14.97;7.37;;;;;;;1.91;79.73;100338.09;8896676;32;20554;-74
2022/02/05 03:26:42;;;;;;;12.55;4.65;;;;;;;1.83;79.72;100357.91;8896830;32;21821;-76
2022/02/05 03:31:45;;;;;;;9.48;5.00;;;;;;;1.69;80.26;100351.44;8896028;32;20181;-76
2022/02/05 03:36:48;;;;;;;14.23;5.75;;;;;;;1.76;79.64;100389.13;8896930;32;20156;-76
2022/02/05 03:41:52;;;;;;;7.90;5.18;;;;;;;1.55;80.16;100369.72;8896087;32;20470;-76
2022/02/05 03:46:55;;;;;;;8.35;4.38;;;;;;;1.49;80.82;100370.00;8896474;32;20547;-76
2022/02/05 03:51:58;;;;;;;8.82;4.50;;;;;;;1.73;79.92;100368.06;8895088;32;20153;-76
2022/02/05 03:57:03;;;;;;;7.40;4.63;;;;;;;1.42;80.53;100387.94;8895850;32;22662;-75
2022/02/05 04:02:06;;;;;;;10.10;5.32;;;;;;;1.72;79.66;100379.56;8895515;32;20138;-76
2022/02/05 04:07:10;;;;;;;9.18;5.22;;;;;;;1.62;80.16;100391.50;8895276;32;20183;-75
2022/02/05 04:17:34;;;;;;;10.82;5.65;;;;;;;1.89;79.53;100402.66;8896060;32;20185;-76
2022/02/05 04:22:37;;;;;;;10.93;6.13;;;;;;;1.62;79.94;100402.09;8895214;32;20138;-76
2022/02/05 04:27:42;;;;;;;10.93;5.70;;;;;;;1.78;79.19;100405.78;8895281;32;20118;-77
2022/02/05 04:32:44;;;;;;;14.68;6.70;;;;;;;1.80;79.23;100416.31;8894905;32;20847;-75
2022/02/05 04:37:50;;;;;;;12.38;5.95;;;;;;;1.97;78.62;100410.28;8895506;32;20196;-75
2022/02/05 04:43:10;;;;;;;13.63;5.80;;;;;;;1.81;79.37;100415.38;8893821;32;20130;-76
2022/02/05 04:48:45;;;;;;;12.57;6.03;;;;;;;1.58;78.97;100421.69;8895282;32;20430;-75
2022/02/05 04:59:45;;;;;;;7.03;4.07;;;;;;;1.64;79.46;100442.59;8857614;32;20185;-75
2022/02/05 05:04:54;;;;;;;13.00;6.33;;;;;;;1.80;78.80;100432.22;8894407;32;20490;-76
2022/02/05 05:10:03;;;;;;;13.75;6.53;;;;;;;1.81;79.23;100445.41;8893918;32;20169;-75
2022/02/05 05:15:39;;;;;;;10.00;5.40;;;;;;;1.64;78.82;100437.31;8893693;32;20177;-76
2022/02/05 05:20:42;;;;;;;14.98;6.38;;;;;;;1.61;78.34;100450.69;8893102;32;20212;-76
2022/02/05 05:25:45;;;;;;;11.95;5.45;;;;;;;1.66;78.03;100438.97;8894247;32;20181;-76
2022/02/05 05:30:49;;;;;;;14.32;5.65;;;;;;;1.86;77.65;100469.03;8892432;32;20177;-77
2022/02/05 05:35:53;;;;;;;10.27;4.40;;;;;;;1.57;78.95;100468.50;8893447;32;20185;-74
2022/02/05 05:40:56;;;;;;;12.40;5.40;;;;;;;1.90;77.65;100471.50;8891462;32;20181;-75
2022/02/05 05:51:20;;;;;;;9.25;5.10;;;;;;;1.79;77.83;100472.88;8868743;32;20494;-74
2022/02/05 05:56:24;;;;;;;10.13;5.45;;;;;;;1.49;78.41;100484.72;8897956;32;20536;-76
2022/02/05 06:01:29;;;;;;;11.57;6.72;;;;;;;2.09;77.64;100490.09;8897717;32;20923;-76
2022/02/05 06:06:32;;;;;;;10.95;5.90;;;;;;;1.66;78.38;100496.38;8898064;32;20185;-77
2022/02/05 06:11:35;;;;;;;7.00;4.22;;;;;;;1.85;78.26;100507.91;8897701;32;20963;-77
2022/02/05 06:16:39;;;;;;;10.52;5.60;;;;;;;1.59;79.14;100508.13;8898688;32;20434;-75
2022/02/05 06:21:42;;;;;;;16.52;5.70;;;;;;;1.87;78.27;100519.31;8897871;32;20181;-76
2022/02/05 06:26:45;;;;;;;8.75;5.65;;;;;;;1.97;77.91;100526.84;8897765;32;20689;-75
2022/02/05 06:31:50;;;;;;;13.82;5.78;;;;;;;1.45;78.81;100556.38;8897382;32;20179;-76
2022/02/05 06:36:54;;;;;;;12.73;4.68;;;;;;;1.66;78.77;100530.81;8897160;32;20915;-75
2022/02/05 06:41:57;;;;;;;6.22;3.92;;;;;;;1.59;79.33;100556.69;8896615;32;20602;-76
2022/02/05 06:47:01;;;;;;;10.55;4.85;;;;;;;1.80;78.59;100564.66;8896707;32;20189;-75
2022/02/05 06:52:07;;;;;;;10.77;4.97;;;;;;;1.78;78.78;100570.00;8897310;32;20134;-76
2022/02/05 06:57:10;;;;;;;10.18;4.95;;;;;;;1.72;78.80;100578.22;8872964;32;20191;-76
2022/02/05 07:02:14;;;;;;;9.32;5.60;;;;;;;1.92;78.24;100575.63;8897436;32;20192;-76
2022/02/05 07:07:17;;;;;;;15.38;5.43;;;;;;;1.93;78.02;100587.91;8898209;32;20420;-75
2022/02/05 07:12:20;;;;;;;13.68;4.55;;;;;;;2.12;77.15;100584.50;8897752;32;20161;-76
2022/02/05 07:17:34;;;;;;;8.70;4.10;;;;;;;1.69;78.62;100576.56;8897577;32;20189;-76
2022/02/05 07:22:50;;;;;;;11.07;4.55;;;;;;;1.66;79.18;100599.66;8897233;32;22079;-75
2022/02/05 07:33:16;;;;;;;9.68;5.72;;;;;;;1.93;78.40;100619.72;8897417;32;20146;-77
2022/02/05 07:38:19;;;;;;;14.20;5.35;;;;;;;1.78;78.34;100609.75;8899128;32;20204;-76
2022/02/05 07:43:28;;;;;;;9.45;6.07;;;;;;;1.91;78.64;100615.41;8897685;32;20770;-76
2022/02/05 07:48:34;;;;;;;6.90;4.97;;;;;;;1.62;78.38;100627.16;8898119;32;20218;-76
2022/02/05 07:53:38;;;;;;;9.55;5.05;;;;;;;1.88;78.76;100628.78;8897627;32;20564;-76
2022/02/05 07:58:42;;;;;;;11.82;5.25;;;;;;;1.69;79.69;100649.84;8910940;32;20185;-75
2022/02/05 08:03:46;;;;;;;10.90;4.63;;;;;;;1.61;79.43;100659.88;8911000;32;21851;-76
2022/02/05 08:08:53;;;;;;;4.40;3.72;;;;;;;1.70;79.05;100659.50;8899020;32;20189;-76
2022/02/05 08:13:56;;;;;;;13.63;6.65;;;;;;;1.68;79.04;100645.50;8901104;32;20146;-75
2022/02/05 08:19:01;;;;;;;9.32;5.38;;;;;;;2.03;78.11;100670.56;8908039;32;20574;-77
2022/02/05 08:24:05;;;;;;;10.27;4.95;;;;;;;2.57;76.72;100673.63;8904460;32;20233;-76
2022/02/05 08:29:09;;;;;;;15.73;6.63;;;;;;;2.70;76.12;100666.00;8901363;32;20184;-77
2022/02/05 08:34:15;;;;;;;5.43;3.75;;;;;;;2.58;75.98;100683.31;8896151;32;21128;-77
2022/02/05 08:39:18;;;;;;;14.43;6.47;;;;;;;2.47;76.24;100680.19;8895187;32;20181;-76
2022/02/05 08:44:21;;;;;;;11.93;5.75;;;;;;;2.27;76.27;100704.91;8896299;32;20503;-75
2022/02/05 08:49:28;;;;;;;17.92;7.43;;;;;;;2.66;75.66;100705.06;8895655;32;20198;-76
2022/02/05 08:54:32;;;;;;;5.47;3.63;;;;;;;2.44;76.03;100693.59;8895556;32;20287;-74
2022/02/05 08:59:46;;;;;;;13.25;6.32;;;;;;;2.30;76.58;100687.06;8896201;32;20185;-76
2022/02/05 09:04:57;;;;;;;13.57;7.15;;;;;;;2.72;75.78;100672.09;8897257;32;20185;-76
2022/02/05 09:10:06;;;;;;;9.07;5.05;;;;;;;3.04;75.00;100683.91;8896258;32;20177;-76
2022/02/05 09:15:10;;;;;;;8.23;3.75;;;;;;;2.97;74.71;100698.41;8895269;32;20478;-76
2022/02/05 09:20:14;;;;;;;7.47;4.35;;;;;;;3.43;73.56;100689.22;8895579;32;20558;-75
2022/02/05 09:25:21;;;;;;;8.93;5.03;;;;;;;3.01;74.55;100702.66;8896324;32;20193;-76
2022/02/05 09:30:41;;;;;;;8.93;5.18;;;;;;;2.87;74.12;100699.75;8900903;32;20196;-76
2022/02/05 09:35:46;;;;;;;7.25;4.93;;;;;;;3.31;73.24;100697.75;8877173;32;20198;-75
2022/02/05 09:40:49;;;;;;;12.13;5.45;;;;;;;3.14;73.49;100717.09;8900098;32;20397;-75
2022/02/05 09:45:56;;;;;;;11.52;5.47;;;;;;;3.95;71.87;100708.00;8899912;32;20183;-75
2022/02/05 09:51:06;;;;;;;10.23;5.90;;;;;;;3.93;70.91;100707.22;8899832;32;21605;-74
2022/02/05 09:56:09;;;;;;;9.40;5.20;;;;;;;4.49;69.92;100701.81;8899942;32;20217;-74
2022/02/05 10:01:16;;;;;;;9.82;5.63;;;;;;;3.98;71.34;100708.78;8900349;32;21880;-75
2022/02/05 10:06:25;;;;;;;9.23;4.35;;;;;;;3.93;70.74;100727.63;8900050;32;20708;-75
2022/02/05 10:11:30;;;;;;;8.07;4.57;;;;;;;3.57;70.81;100716.94;8899674;32;20276;-76
2022/02/05 10:16:33;;;;;;;8.38;4.40;;;;;;;4.48;68.70;100714.28;8899710;32;20188;-76
2022/02/05 10:21:37;;;;;;;10.52;4.65;;;;;;;3.58;70.92;100739.91;8900922;32;20226;-76
2022/02/05 10:26:42;;;;;;;9.07;4.10;;;;;;;3.94;69.60;100721.38;8900143;32;20555;-76
2022/02/05 10:32:06;;;;;;;9.25;5.07;;;;;;;4.22;69.15;100726.19;8899680;32;20207;-76
2022/02/05 10:37:19;;;;;;;12.93;4.93;;;;;;;4.74;67.53;100709.41;8899710;32;20276;-76
2022/02/05 10:47:52;;;;;;;8.75;4.72;;;;;;;4.40;68.49;100721.78;8899067;32;20185;-76
2022/02/05 10:53:02;;;;;;;8.07;5.40;;;;;;;4.39;68.23;100725.38;8899244;32;20181;-76
2022/02/05 10:58:31;;;;;;;10.30;4.80;;;;;;;4.28;68.48;100714.38;8898450;32;20142;-75
2022/02/05 11:08:56;;;;;;;11.30;5.30;;;;;;;4.29;67.02;100714.31;8899801;32;20165;-77
2022/02/05 11:14:16;;;;;;;8.55;3.67;;;;;;;4.34;67.68;100722.09;8898237;32;20178;-74
2022/02/05 11:19:19;;;;;;;7.60;4.45;;;;;;;4.01;67.50;100701.53;8897102;32;20185;-77
2022/02/05 11:24:30;;;;;;;9.15;5.38;;;;;;;4.23;67.01;100709.31;8897239;32;20264;-75
2022/02/05 11:29:34;;;;;;;10.88;5.53;;;;;;;4.65;65.54;100716.06;8897390;32;20452;-76
2022/02/05 11:34:47;;;;;;;11.82;4.82;;;;;;;4.49;65.73;100705.34;8897839;32;20191;-76
2022/02/05 11:39:55;;;;;;;11.93;5.00;;;;;;;4.02;67.11;100689.09;8896549;32;20619;-76
2022/02/05 11:45:01;;;;;;;14.32;4.18;;;;;;;6.05;62.08;100679.22;8898623;32;20197;-76
2022/02/05 11:50:25;;;;;;;7.60;3.30;;;;;;;5.01;62.69;100691.19;8894517;32;20438;-75
2022/02/05 11:55:51;;;;;;;5.30;3.00;;;;;;;4.24;64.28;100704.84;8896588;32;20122;-74
2022/02/05 12:00:57;;;;;;;10.57;4.80;;;;;;;4.25;65.03;100690.63;8887135;32;20192;-76
2022/02/05 12:06:07;;;;;;;7.60;4.45;;;;;;;4.84;63.77;100686.72;8895573;32;20583;-75
2022/02/05 12:11:34;;;;;;;11.90;4.95;;;;;;;5.46;64.02;100693.19;8895788;32;21874;-75
2022/02/05 12:16:38;;;;;;;11.77;5.95;;;;;;;6.98;59.08;100675.53;8897342;32;20309;-74
2022/02/05 12:21:55;;;;;;;8.43;4.80;;;;;;;6.65;58.99;100686.41;8897185;32;20655;-74
2022/02/05 12:27:02;;;;;;;7.10;3.58;;;;;;;5.52;60.88;100664.47;8895411;32;20153;-74
2022/02/05 12:32:08;;;;;;;5.85;4.07;;;;;;;4.41;63.40;100664.97;8897107;32;20637;-76
2022/02/05 12:37:11;;;;;;;4.80;3.60;;;;;;;4.49;63.83;100673.41;8895805;32;20177;-75
2022/02/05 12:42:18;;;;;;;5.38;3.35;;;;;;;4.61;62.91;100671.94;8893579;32;20554;-75
2022/02/05 12:47:28;;;;;;;8.55;3.63;;;;;;;4.54;64.92;100668.72;8894007;32;20735;-75
2022/02/05 12:52:31;;;;;;;5.65;5.03;;;;;;;4.66;65.26;100651.25;8865447;32;21756;-76
2022/02/05 12:57:38;;;;;;;8.43;4.65;;;;;;;4.61;65.43;100656.84;8894756;32;20149;-76
2022/02/05 13:02:42;;;;;;;11.43;4.28;;;;;;;4.72;65.51;100648.28;8894031;32;20181;-75
2022/02/05 13:07:47;;;;;;;4.93;3.30;;;;;;;4.20;65.91;100639.44;8894481;32;20230;-75
2022/02/05 13:12:56;;;;;;;3.38;2.58;;;;;;;3.86;66.56;100641.13;8895360;32;20596;-75
2022/02/05 13:18:15;;;;;;;4.00;3.55;;;;;;;3.96;66.82;100655.72;8891231;32;20190;-75
2022/02/05 13:28:54;;;;;;;5.55;3.10;;;;;;;4.26;65.33;100641.81;8892582;32;20193;-75
2022/02/05 13:34:07;;;;;;;6.47;3.50;;;;;;;4.52;65.34;100633.34;8894626;32;20130;-76
2022/02/05 13:39:27;;;;;;;11.45;4.13;;;;;;;4.38;65.71;100619.91;8897169;32;20196;-75
2022/02/05 13:44:56;;;;;;;7.30;3.38;;;;;;;4.58;65.32;100613.53;8905408;32;20213;-74
2022/02/05 13:50:02;;;;;;;4.65;2.75;;;;;;;4.52;64.40;100619.19;8894047;32;21014;-76
2022/02/05 13:55:21;;;;;;;3.72;2.78;;;;;;;4.41;65.27;100598.47;8894123;32;20280;-75
2022/02/05 14:00:40;;;;;;;3.78;3.00;;;;;;;4.44;65.56;100624.03;8893836;32;20181;-75
2022/02/05 14:06:03;;;;;;;3.88;2.83;;;;;;;4.62;64.65;100599.16;8893778;32;20191;-74
2022/02/05 14:11:08;;;;;;;5.53;3.30;;;;;;;4.51;62.69;100598.84;8894259;32;20297;-76
2022/02/05 14:16:13;;;;;;;6.60;3.20;;;;;;;4.68;62.75;100592.66;8899279;32;20430;-77
2022/02/05 14:21:16;;;;;;;6.00;3.50;;;;;;;4.73;61.47;100562.19;8898976;32;20154;-74
2022/02/05 14:26:28;;;;;;;5.72;3.00;;;;;;;5.04;61.56;100613.78;8899297;32;20181;-76
2022/02/05 14:31:41;;;;;;;5.63;2.92;;;;;;;4.23;60.86;100573.69;8899567;32;20216;-76
2022/02/05 14:42:23;;;;;;;2.95;2.22;;;;;;;4.58;62.33;100609.09;8909492;32;20441;-76
2022/02/05 14:47:27;;;;;;;5.80;3.10;;;;;;;5.16;60.98;100590.97;8921430;32;20168;-76
2022/02/05 14:52:30;;;;;;;4.90;3.28;;;;;;;5.29;60.17;100594.66;8909692;32;20193;-76
2022/02/05 14:57:33;;;;;;;2.78;2.53;;;;;;;4.97;61.57;100586.63;8900191;32;20460;-75
2022/02/05 15:02:38;;;;;;;11.82;4.05;;;;;;;4.66;62.64;100573.22;8874317;32;20198;-77
2022/02/05 15:07:43;;;;;;;3.72;3.40;;;;;;;4.38;63.57;100588.84;8898336;32;20181;-76
2022/02/05 15:12:46;;;;;;;11.20;4.80;;;;;;;4.24;64.08;100558.59;8898282;32;20189;-75
2022/02/05 15:17:51;;;;;;;9.25;5.32;;;;;;;4.21;64.64;100566.75;8898198;32;20181;-76
2022/02/05 15:22:54;;;;;;;5.47;3.88;;;;;;;4.46;63.88;100574.28;8897071;32;20177;-76
2022/02/05 15:27:57;;;;;;;6.50;5.18;;;;;;;4.49;64.38;100539.53;8897793;32;20210;-75
2022/02/05 15:33:03;;;;;;;5.40;3.72;;;;;;;4.84;62.34;100548.28;8897405;32;20184;-77
2022/02/05 15:38:11;;;;;;;4.80;3.55;;;;;;;4.48;62.96;100575.09;8897863;32;20237;-76
2022/02/05 15:43:44;;;;;;;6.32;3.25;;;;;;;4.20;63.71;100557.03;8896624;32;20220;-75
2022/02/05 15:48:49;;;;;;;12.07;4.80;;;;;;;4.17;63.92;100552.75;8871455;32;20146;-75
2022/02/05 15:53:56;;;;;;;5.43;3.80;;;;;;;4.37;63.21;100551.69;8899203;32;20146;-76
2022/02/05 15:59:02;;;;;;;4.20;3.13;;;;;;;4.41;62.77;100553.25;8901146;32;20183;-76
2022/02/05 16:04:07;;;;;;;8.75;4.50;;;;;;;4.45;62.33;100535.34;8897123;32;20436;-75
2022/02/05 16:09:12;;;;;;;5.78;3.05;;;;;;;4.34;62.79;100538.56;8896070;32;20193;-75
2022/02/05 16:14:15;;;;;;;6.15;4.30;;;;;;;4.54;62.54;100529.53;8897743;32;20211;-74
2022/02/05 16:19:20;;;;;;;5.93;4.15;;;;;;;4.49;62.89;100534.22;8894647;32;20131;-75
2022/02/05 16:24:23;;;;;;;6.50;4.03;;;;;;;4.35;63.33;100521.66;8896231;32;20189;-76
2022/02/05 16:29:27;;;;;;;7.97;3.38;;;;;;;4.31;63.12;100520.13;8895315;32;20403;-75
2022/02/05 16:34:32;;;;;;;6.35;4.00;;;;;;;4.49;62.98;100513.78;8895611;32;20185;-75
2022/02/05 16:39:41;;;;;;;4.80;3.40;;;;;;;4.32;63.03;100503.22;8895141;32;20527;-76
2022/02/05 16:44:44;;;;;;;10.57;4.82;;;;;;;4.16;63.93;100506.66;8896086;32;20276;-75
2022/02/05 16:49:48;;;;;;;7.82;3.30;;;;;;;4.32;63.45;100492.56;8894127;32;20246;-74
2022/02/05 16:54:52;;;;;;;6.30;3.78;;;;;;;4.24;63.26;100489.47;8895246;32;20189;-75
2022/02/05 16:59:55;;;;;;;5.13;2.63;;;;;;;4.03;63.16;100483.47;8895240;32;20432;-74
2022/02/05 17:04:59;;;;;;;13.00;3.28;;;;;;;4.35;63.21;100477.31;8894367;32;20431;-76
2022/02/05 17:10:04;;;;;;;8.60;3.33;;;;;;;4.04;63.31;100478.06;8894884;32;20632;-74
2022/02/05 17:15:08;;;;;;;6.53;3.22;;;;;;;4.44;62.43;100478.59;8869162;32;20154;-75
2022/02/05 17:20:17;;;;;;;3.28;2.42;;;;;;;4.11;63.14;100466.19;8894954;32;20895;-73
2022/02/05 17:25:20;;;;;;;6.70;2.60;;;;;;;4.24;62.34;100463.72;8895228;32;20118;-75
2022/02/05 17:30:24;;;;;;;5.43;2.33;;;;;;;4.17;63.14;100465.88;8894695;32;20193;-75
2022/02/05 17:35:32;;;;;;;4.38;2.40;;;;;;;4.10;62.72;100483.06;8894611;32;20146;-75
2022/02/05 17:40:35;;;;;;;3.67;2.25;;;;;;;4.38;62.07;100462.97;8894518;32;20146;-74
2022/02/05 17:45:38;;;;;;;8.85;3.90;;;;;;;4.60;62.35;100458.19;8895620;32;20185;-74
2022/02/05 17:50:44;;;;;;;6.50;3.15;;;;;;;4.31;62.84;100443.84;8900218;32;20141;-76
2022/02/05 17:55:47;;;;;;;3.05;2.45;;;;;;;4.42;62.41;100451.25;8900552;32;20176;-75
2022/02/05 18:00:51;;;;;;;9.50;3.25;;;;;;;4.47;62.68;100438.56;8901384;32;20177;-75
2022/02/05 18:05:58;;;;;;;6.70;2.83;;;;;;;4.48;62.32;100426.13;8903729;32;20129;-76
2022/02/05 18:11:08;;;;;;;7.15;3.10;;;;;;;4.25;62.99;100437.97;8900879;32;20134;-76
2022/02/05 18:16:11;;;;;;;6.72;2.92;;;;;;;4.62;62.35;100420.88;8899564;32;20185;-74
2022/02/05 18:21:15;;;;;;;5.22;2.78;;;;;;;4.38;62.38;100428.41;8899820;32;20577;-75
2022/02/05 18:26:21;;;;;;;7.20;3.17;;;;;;;4.55;62.70;100428.34;8899823;32;20177;-76
2022/02/05 18:31:24;;;;;;;4.82;2.80;;;;;;;4.65;62.68;100417.19;8900112;32;20134;-76
2022/02/05 18:36:29;;;;;;;4.45;2.80;;;;;;;4.32;63.63;100412.78;8900991;32;20149;-76
2022/02/05 18:41:36;;;;;;;3.10;1.77;;;;;;;4.57;62.44;100426.44;8905830;32;20211;-76
2022/02/05 18:46:40;;;;;;;6.40;2.90;;;;;;;4.49;63.07;100379.94;8899871;32;20169;-76
2022/02/05 18:51:45;;;;;;;6.05;3.13;;;;;;;4.64;62.84;100372.91;8899863;32;20272;-76
2022/02/05 18:56:52;;;;;;;6.43;3.08;;;;;;;4.62;62.75;100376.50;8899506;32;20185;-76
2022/02/05 19:02:20;;;;;;;9.80;3.47;;;;;;;4.43;63.79;100353.69;8899874;32;20197;-76
2022/02/05 19:13:03;;;;;;;5.07;2.63;;;;;;;4.20;63.89;100334.56;8899620;32;20633;-76
2022/02/05 19:18:15;;;;;;;2.90;1.75;;;;;;;4.40;63.67;100344.06;8900283;32;20367;-77
2022/02/05 19:23:24;;;;;;;4.55;2.38;;;;;;;4.50;63.67;100347.06;8912819;32;20185;-78
2022/02/05 19:28:28;;;;;;;8.63;2.28;;;;;;;4.64;63.19;100340.97;8906194;32;20245;-76
2022/02/05 19:33:36;;;;;;;3.10;2.30;;;;;;;4.67;63.31;100322.19;8899183;32;20195;-75
2022/02/05 19:38:44;;;;;;;2.50;2.05;;;;;;;4.53;64.17;100310.53;8899029;32;20154;-74
2022/02/05 19:43:47;;;;;;;8.70;2.63;;;;;;;4.86;62.93;100296.22;8875071;32;20148;-76
2022/02/05 19:48:50;;;;;;;5.93;2.67;;;;;;;4.57;63.77;100306.72;8898602;32;20146;-76
2022/02/05 19:53:55;;;;;;;4.78;2.28;;;;;;;4.92;63.29;100292.34;8897121;32;20769;-77
2022/02/05 19:58:58;;;;;;;15.13;4.68;;;;;;;4.89;63.00;100295.19;8896652;32;20178;-75
2022/02/05 20:04:02;;;;;;;4.05;2.50;;;;;;;4.97;62.80;100309.75;8899243;32;20708;-77
2022/02/05 20:09:07;;;;;;;3.70;1.95;;;;;;;4.76;63.43;100274.59;8896978;32;20863;-74
2022/02/05 20:14:10;;;;;;;7.18;2.70;;;;;;;4.65;63.88;100254.88;8897350;32;20187;-75
2022/02/05 20:19:13;;;;;;;5.32;2.50;;;;;;;4.88;63.59;100262.34;8896484;32;20258;-75
2022/02/05 20:24:20;;;;;;;3.33;1.95;;;;;;;4.58;65.10;100260.56;8898307;32;20177;-75
2022/02/05 20:29:23;;;;;;;4.10;3.05;;;;;;;4.86;64.85;100258.09;8898308;32;20182;-74
2022/02/05 20:34:26;;;;;;;3.47;2.20;;;;;;;4.79;64.62;100257.59;8897559;32;20142;-75
2022/02/05 20:39:30;;;;;;;9.30;2.50;;;;;;;4.73;66.10;100240.19;8871637;32;20878;-75
2022/02/05 20:44:33;;;;;;;7.35;1.98;;;;;;;4.52;66.35;100236.09;8897329;32;20189;-75
2022/02/05 20:49:42;;;;;;;8.85;3.67;;;;;;;4.42;67.74;100253.56;8895552;32;20821;-76
2022/02/05 20:54:53;;;;;;;5.28;2.20;;;;;;;4.21;68.87;100224.59;8897315;32;20522;-77
2022/02/05 20:59:57;;;;;;;5.85;3.03;;;;;;;4.12;71.64;100231.28;8896423;32;20210;-77
2022/02/05 21:05:00;;;;;;;7.78;3.40;;;;;;;3.86;72.74;100224.75;8896323;32;20241;-74
2022/02/05 21:10:07;;;;;;;4.93;2.78;;;;;;;3.77;74.18;100189.88;8902402;32;20427;-75
2022/02/05 21:15:11;;;;;;;3.42;2.75;;;;;;;3.69;74.73;100199.13;8921981;32;22126;-76
2022/02/05 21:20:15;;;;;;;5.22;2.90;;;;;;;3.52;76.55;100187.75;8917450;32;20189;-76
2022/02/05 21:25:19;;;;;;;8.50;3.28;;;;;;;3.68;76.47;100199.22;8898695;32;20177;-76
2022/02/05 21:30:26;;;;;;;7.43;3.45;;;;;;;3.60;78.05;100186.38;8903590;32;20230;-76
2022/02/05 21:35:30;;;;;;;5.05;2.40;;;;;;;3.53;78.38;100170.84;8895249;32;20886;-76
2022/02/05 21:40:34;;;;;;;3.70;2.72;;;;;;;3.50;78.48;100151.47;8894602;32;20436;-76
2022/02/05 21:45:37;;;;;;;5.18;2.78;;;;;;;3.51;79.59;100152.31;8895240;32;20638;-76
2022/02/05 21:50:40;;;;;;;10.43;3.40;;;;;;;3.53;79.66;100146.94;8868673;32;20138;-76
2022/02/05 21:55:52;;;;;;;5.57;3.00;;;;;;;3.37;80.22;100145.13;8894079;32;20847;-75
2022/02/05 22:00:55;;;;;;;3.88;2.92;;;;;;;3.45;79.89;100155.31;8893957;32;20181;-76
2022/02/05 22:05:58;;;;;;;5.38;3.40;;;;;;;3.37;80.24;100131.00;8894414;32;20185;-77
2022/02/05 22:11:02;;;;;;;4.00;3.13;;;;;;;3.23;80.94;100108.72;8894190;32;20185;-77
2022/02/05 22:16:06;;;;;;;5.20;2.53;;;;;;;3.43;81.51;100117.41;8895532;32;20969;-77
2022/02/05 22:21:09;;;;;;;4.00;2.60;;;;;;;3.40;81.74;100101.63;8894738;32;20537;-77
2022/02/05 22:26:14;;;;;;;3.33;2.30;;;;;;;3.34;82.27;100099.31;8895934;32;20126;-77
2022/02/05 22:31:17;;;;;;;3.22;2.80;;;;;;;3.11;83.26;100087.31;8891095;32;20975;-75
2022/02/05 22:36:20;;;;;;;15.75;3.67;;;;;;;3.05;84.15;100092.00;8897201;32;20182;-78
2022/02/05 22:41:25;;;;;;;6.68;3.88;;;;;;;3.33;84.81;100084.34;8898590;32;20214;-79
2022/02/05 22:46:28;;;;;;;6.10;2.88;;;;;;;3.14;85.01;100097.75;8877614;32;20177;-78
2022/02/05 22:51:31;;;;;;;6.53;4.28;;;;;;;3.29;85.30;100062.38;8901578;32;20233;-76
2022/02/05 22:56:39;;;;;;;6.28;3.38;;;;;;;3.11;86.05;100071.38;8903697;32;20178;-77
2022/02/05 23:01:44;;;;;;;4.60;3.05;;;;;;;3.01;86.37;100078.97;8902856;32;20189;-78
2022/02/05 23:06:47;;;;;;;13.82;4.43;;;;;;;3.22;85.96;100053.91;8902446;32;20185;-77
2022/02/05 23:43:51;;;;;;;7.47;3.17;;;;;;;3.20;88.57;99986.78;8837861;32;20746;-77
2022/02/05 23:48:54;;;;;;;5.22;3.42;;;;;;;3.24;88.57;99980.38;8896696;32;20193;-77
2022/02/05 23:53:57;;;;;;;6.70;3.22;;;;;;;3.06;88.87;99982.25;8897345;32;20683;-76
2022/02/05 23:59:04;;;;;;;10.40;3.90;;;;;;;3.34;89.20;99955.94;8894477;32;20181;-77
